createdAt,value
2018-07-08T00:00:10.320Z,1018.4
2018-07-08T00:01:19.737Z,1018.44
2018-07-08T00:02:28.641Z,1018.43
2018-07-08T00:03:37.796Z,1018.47
2018-07-08T00:04:47.463Z,1018.46
2018-07-08T00:05:57.400Z,1018.46
2018-07-08T00:07:06.812Z,1018.48
2018-07-08T00:08:16.248Z,1018.48
2018-07-08T00:09:25.666Z,1018.48
2018-07-08T00:10:35.098Z,1018.53
2018-07-08T00:11:44.761Z,1018.52
2018-07-08T00:12:54.193Z,1018.52
2018-07-08T00:14:03.870Z,1018.54
2018-07-08T00:15:13.029Z,1018.57
2018-07-08T00:16:21.939Z,1018.6
2018-07-08T00:17:30.826Z,1018.56
2018-07-08T00:18:40.511Z,1018.55
2018-07-08T00:19:49.671Z,1018.59
2018-07-08T00:20:59.328Z,1018.56
2018-07-08T00:22:08.493Z,1018.58
2018-07-08T00:23:18.188Z,1018.56
2018-07-08T00:24:27.613Z,1018.57
2018-07-08T00:25:37.288Z,1018.56
2018-07-08T00:26:46.727Z,1018.55
2018-07-08T00:27:56.396Z,1018.54
2018-07-08T00:29:05.816Z,1018.53
2018-07-08T00:30:14.987Z,1018.54
2018-07-08T00:31:24.671Z,1018.54
2018-07-08T00:32:34.609Z,1018.53
2018-07-08T00:33:44.072Z,1018.51
2018-07-08T00:34:54.006Z,1018.54
2018-07-08T00:36:03.693Z,1018.54
2018-07-08T00:37:13.105Z,1018.54
2018-07-08T00:38:22.298Z,1018.5
2018-07-08T00:39:31.462Z,1018.57
2018-07-08T00:40:41.149Z,1018.56
2018-07-08T00:41:50.042Z,1018.59
2018-07-08T00:42:59.485Z,1018.58
2018-07-08T00:44:08.666Z,1018.6
2018-07-08T00:45:17.608Z,1018.57
2018-07-08T00:46:26.797Z,1018.56
2018-07-08T00:47:37.146Z,1018.56
2018-07-08T00:48:47.090Z,1018.58
2018-07-08T00:49:56.797Z,1018.57
2018-07-08T00:51:05.986Z,1018.57
2018-07-08T00:52:15.171Z,1018.62
2018-07-08T00:53:24.875Z,1018.62
2018-07-08T00:54:34.299Z,1018.61
2018-07-08T00:55:43.718Z,1018.63
2018-07-08T00:56:53.411Z,1018.64
2018-07-08T00:58:02.838Z,1018.64
2018-07-08T00:59:12.241Z,1018.67
2018-07-08T01:00:21.899Z,1018.66
2018-07-08T01:01:31.056Z,1018.66
2018-07-08T01:02:40.900Z,1018.63
2018-07-08T01:03:50.584Z,1018.62
2018-07-08T01:05:00.274Z,1018.62
2018-07-08T01:06:09.693Z,1018.63
2018-07-08T01:07:19.371Z,1018.64
2018-07-08T01:08:28.551Z,1018.65
2018-07-08T01:09:38.288Z,1018.67
2018-07-08T01:10:47.982Z,1018.67
2018-07-08T01:11:57.140Z,1018.66
2018-07-08T01:13:06.568Z,1018.66
2018-07-08T01:14:16.263Z,1018.66
2018-07-08T01:15:25.954Z,1018.65
2018-07-08T01:16:35.632Z,1018.71
2018-07-08T01:17:45.075Z,1018.63
2018-07-08T01:18:54.275Z,1018.65
2018-07-08T01:20:03.437Z,1018.7
2018-07-08T01:21:13.129Z,1018.69
2018-07-08T01:22:22.090Z,1018.68
2018-07-08T01:23:31.525Z,1018.71
2018-07-08T01:24:40.419Z,1018.72
2018-07-08T01:25:49.580Z,1018.71
2018-07-08T01:26:59.255Z,1018.7
2018-07-08T01:28:08.680Z,1018.72
2018-07-08T01:29:18.101Z,1018.69
2018-07-08T01:30:27.261Z,1018.72
2018-07-08T01:31:36.679Z,1018.71
2018-07-08T01:32:46.104Z,1018.69
2018-07-08T01:33:55.310Z,1018.7
2018-07-08T01:35:04.495Z,1018.73
2018-07-08T01:36:13.657Z,1018.71
2018-07-08T01:37:22.821Z,1018.73
2018-07-08T01:38:31.975Z,1018.75
2018-07-08T01:39:41.390Z,1018.82
2018-07-08T01:40:50.794Z,1018.78
2018-07-08T01:42:00.479Z,1018.79
2018-07-08T01:43:09.133Z,1018.79
2018-07-08T01:44:18.585Z,1018.83
2018-07-08T01:45:28.904Z,1018.81
2018-07-08T01:46:38.319Z,1018.89
2018-07-08T01:47:47.493Z,1018.87
2018-07-08T01:48:56.912Z,1018.86
2018-07-08T01:50:05.835Z,1018.85
2018-07-08T01:51:15.026Z,1018.88
2018-07-08T01:52:24.504Z,1018.89
2018-07-08T01:53:33.429Z,1018.88
2018-07-08T01:54:42.856Z,1018.85
2018-07-08T01:55:52.280Z,1018.92
2018-07-08T01:57:01.937Z,1018.91
2018-07-08T01:58:10.826Z,1018.92
2018-07-08T01:59:20.749Z,1018.9
2018-07-08T02:00:30.420Z,1019
2018-07-08T02:01:39.578Z,1018.96
2018-07-08T02:02:49.615Z,1018.97
2018-07-08T02:03:59.038Z,1018.96
2018-07-08T02:05:08.465Z,1019.01
2018-07-08T02:06:17.623Z,1018.99
2018-07-08T02:07:27.051Z,1018.98
2018-07-08T02:08:36.217Z,1019
2018-07-08T02:09:45.877Z,1019.01
2018-07-08T02:10:55.084Z,1019.03
2018-07-08T02:12:04.506Z,1019.01
2018-07-08T02:13:13.928Z,1019.03
2018-07-08T02:14:23.088Z,1019.02
2018-07-08T02:15:32.546Z,1019.06
2018-07-08T02:16:41.706Z,1019.02
2018-07-08T02:17:50.922Z,1019.04
2018-07-08T02:19:00.199Z,1019.03
2018-07-08T02:20:09.617Z,1019.06
2018-07-08T02:21:18.769Z,1019.06
2018-07-08T02:22:27.948Z,1019.08
2018-07-08T02:23:37.879Z,1019.04
2018-07-08T02:24:47.810Z,1019.09
2018-07-08T02:25:56.968Z,1019.14
2018-07-08T02:27:06.901Z,1019.14
2018-07-08T02:28:16.817Z,1019.14
2018-07-08T02:29:26.248Z,1019.17
2018-07-08T02:30:35.675Z,1019.19
2018-07-08T02:31:45.426Z,1019.16
2018-07-08T02:32:55.109Z,1019.16
2018-07-08T02:34:04.801Z,1019.19
2018-07-08T02:35:14.226Z,1019.19
2018-07-08T02:36:23.140Z,1019.17
2018-07-08T02:37:32.629Z,1019.14
2018-07-08T02:38:42.578Z,1019.1
2018-07-08T02:39:52.268Z,1019.11
2018-07-08T02:41:02.288Z,1019.11
2018-07-08T02:42:12.001Z,1019.1
2018-07-08T02:43:21.164Z,1019.11
2018-07-08T02:44:31.108Z,1019.09
2018-07-08T02:45:41.083Z,1019.12
2018-07-08T02:46:51.012Z,1019.14
2018-07-08T02:48:00.723Z,1019.09
2018-07-08T02:49:10.413Z,1019.1
2018-07-08T02:50:19.859Z,1019.13
2018-07-08T02:51:29.552Z,1019.1
2018-07-08T02:52:39.405Z,1019.13
2018-07-08T02:53:49.346Z,1019.12
2018-07-08T02:54:58.774Z,1019.11
2018-07-08T02:56:08.203Z,1019.13
2018-07-08T02:57:17.892Z,1019.13
2018-07-08T02:58:27.609Z,1019.16
2018-07-08T02:59:37.059Z,1019.11
2018-07-08T03:00:46.488Z,1019.16
2018-07-08T03:01:56.462Z,1019.13
2018-07-08T03:03:06.156Z,1019.17
2018-07-08T03:04:15.340Z,1019.12
2018-07-08T03:05:25.281Z,1019.14
2018-07-08T03:06:34.968Z,1019.14
2018-07-08T03:07:44.401Z,1019.13
2018-07-08T03:08:53.954Z,1019.17
2018-07-08T03:10:03.609Z,1019.13
2018-07-08T03:11:13.564Z,1019.14
2018-07-08T03:12:22.988Z,1019.11
2018-07-08T03:13:32.679Z,1019.12
2018-07-08T03:14:42.648Z,1019.13
2018-07-08T03:15:52.328Z,1019.16
2018-07-08T03:17:02.015Z,1019.12
2018-07-08T03:18:11.989Z,1019.14
2018-07-08T03:19:21.203Z,1019.16
2018-07-08T03:20:30.899Z,1019.12
2018-07-08T03:21:40.061Z,1019.14
2018-07-08T03:22:49.732Z,1019.14
2018-07-08T03:23:59.149Z,1019.12
2018-07-08T03:25:08.313Z,1019.16
2018-07-08T03:26:17.743Z,1019.16
2018-07-08T03:27:27.682Z,1019.14
2018-07-08T03:28:36.592Z,1019.14
2018-07-08T03:29:45.746Z,1019.16
2018-07-08T03:30:55.167Z,1019.13
2018-07-08T03:32:04.857Z,1019.12
2018-07-08T03:33:14.981Z,1019.14
2018-07-08T03:34:24.485Z,1019.21
2018-07-08T03:35:33.394Z,1019.17
2018-07-08T03:36:43.056Z,1019.16
2018-07-08T03:37:52.486Z,1019.22
2018-07-08T03:39:02.172Z,1019.19
2018-07-08T03:40:11.343Z,1019.18
2018-07-08T03:41:21.278Z,1019.25
2018-07-08T03:42:30.184Z,1019.25
2018-07-08T03:43:39.107Z,1019.28
2018-07-08T03:44:48.256Z,1019.26
2018-07-08T03:45:57.409Z,1019.28
2018-07-08T03:47:06.552Z,1019.26
2018-07-08T03:48:15.966Z,1019.31
2018-07-08T03:49:25.377Z,1019.33
2018-07-08T03:50:34.287Z,1019.33
2018-07-08T03:51:43.694Z,1019.36
2018-07-08T03:52:53.141Z,1019.31
2018-07-08T03:54:02.557Z,1019.34
2018-07-08T03:55:11.725Z,1019.32
2018-07-08T03:56:20.891Z,1019.35
2018-07-08T03:57:30.822Z,1019.31
2018-07-08T03:58:40.009Z,1019.32
2018-07-08T03:59:49.418Z,1019.34
2018-07-08T04:00:59.092Z,1019.3
2018-07-08T04:02:08.826Z,1019.28
2018-07-08T04:03:17.977Z,1019.27
2018-07-08T04:04:27.396Z,1019.31
2018-07-08T04:05:36.815Z,1019.28
2018-07-08T04:06:46.745Z,1019.32
2018-07-08T04:07:55.661Z,1019.33
2018-07-08T04:09:04.822Z,1019.31
2018-07-08T04:10:14.239Z,1019.3
2018-07-08T04:11:23.474Z,1019.29
2018-07-08T04:12:32.384Z,1019.28
2018-07-08T04:13:41.554Z,1019.35
2018-07-08T04:14:51.494Z,1019.34
2018-07-08T04:16:00.411Z,1019.34
2018-07-08T04:17:09.575Z,1019.32
2018-07-08T04:18:18.217Z,1019.31
2018-07-08T04:19:28.135Z,1019.32
2018-07-08T04:20:37.805Z,1019.37
2018-07-08T04:21:47.227Z,1019.39
2018-07-08T04:22:56.650Z,1019.4
2018-07-08T04:24:05.309Z,1019.41
2018-07-08T04:25:14.497Z,1019.41
2018-07-08T04:26:23.929Z,1019.43
2018-07-08T04:27:33.103Z,1019.45
2018-07-08T04:28:42.518Z,1019.45
2018-07-08T04:29:51.942Z,1019.5
2018-07-08T04:31:01.371Z,1019.53
2018-07-08T04:32:10.821Z,1019.52
2018-07-08T04:33:20.299Z,1019.58
2018-07-08T04:34:29.729Z,1019.61
2018-07-08T04:35:39.151Z,1019.6
2018-07-08T04:36:48.572Z,1019.63
2018-07-08T04:37:57.995Z,1019.65
2018-07-08T04:39:07.418Z,1019.68
2018-07-08T04:40:16.617Z,1019.67
2018-07-08T04:41:26.293Z,1019.72
2018-07-08T04:42:35.455Z,1019.73
2018-07-08T04:43:44.869Z,1019.74
2018-07-08T04:44:54.281Z,1019.75
2018-07-08T04:46:03.173Z,1019.77
2018-07-08T04:47:11.826Z,1019.76
2018-07-08T04:48:21.243Z,1019.78
2018-07-08T04:49:30.411Z,1019.82
2018-07-08T04:50:39.595Z,1019.86
2018-07-08T04:51:49.264Z,1019.87
2018-07-08T04:52:58.676Z,1019.9
2018-07-08T04:54:08.352Z,1019.89
2018-07-08T04:55:17.274Z,1019.91
2018-07-08T04:56:26.713Z,1019.9
2018-07-08T04:57:35.923Z,1019.91
2018-07-08T04:58:45.608Z,1019.9
2018-07-08T04:59:55.218Z,1019.88
2018-07-08T05:01:04.659Z,1019.88
2018-07-08T05:02:14.335Z,1019.96
2018-07-08T05:03:23.479Z,1019.94
2018-07-08T05:04:32.923Z,1019.96
2018-07-08T05:05:42.882Z,1019.94
2018-07-08T05:06:52.090Z,1019.92
2018-07-08T05:08:02.032Z,1019.91
2018-07-08T05:09:11.187Z,1019.96
2018-07-08T05:10:20.082Z,1019.96
2018-07-08T05:11:29.773Z,1019.94
2018-07-08T05:12:39.453Z,1020
2018-07-08T05:13:48.631Z,1019.96
2018-07-08T05:14:58.067Z,1019.97
2018-07-08T05:16:07.486Z,1019.97
2018-07-08T05:17:16.645Z,1020.01
2018-07-08T05:18:26.566Z,1020.02
2018-07-08T05:19:35.467Z,1020
2018-07-08T05:20:44.661Z,1019.97
2018-07-08T05:21:54.093Z,1019.98
2018-07-08T05:23:03.503Z,1019.97
2018-07-08T05:24:13.177Z,1019.99
2018-07-08T05:25:23.142Z,1019.99
2018-07-08T05:26:32.300Z,1019.95
2018-07-08T05:27:41.989Z,1019.95
2018-07-08T05:28:50.627Z,1019.94
2018-07-08T05:29:59.797Z,1019.9
2018-07-08T05:31:09.500Z,1019.9
2018-07-08T05:32:18.915Z,1019.92
2018-07-08T05:33:28.582Z,1019.96
2018-07-08T05:34:37.993Z,1019.95
2018-07-08T05:35:47.699Z,1020.01
2018-07-08T05:36:57.134Z,1019.95
2018-07-08T05:38:06.297Z,1019.99
2018-07-08T05:39:16.287Z,1019.96
2018-07-08T05:40:25.441Z,1019.95
2018-07-08T05:41:34.839Z,1019.94
2018-07-08T05:42:44.816Z,1019.94
2018-07-08T05:43:54.287Z,1019.91
2018-07-08T05:45:03.705Z,1019.94
2018-07-08T05:46:13.126Z,1019.93
2018-07-08T05:47:22.041Z,1019.97
2018-07-08T05:48:31.721Z,1019.97
2018-07-08T05:49:40.906Z,1019.95
2018-07-08T05:50:50.576Z,1019.9
2018-07-08T05:51:59.991Z,1019.93
2018-07-08T05:53:08.920Z,1019.88
2018-07-08T05:54:18.595Z,1019.87
2018-07-08T05:55:28.291Z,1019.89
2018-07-08T05:56:37.963Z,1019.91
2018-07-08T05:57:47.385Z,1019.89
2018-07-08T05:58:56.548Z,1019.88
2018-07-08T06:00:06.210Z,1019.94
2018-07-08T06:01:15.376Z,1019.94
2018-07-08T06:02:24.783Z,1019.98
2018-07-08T06:03:34.718Z,1019.97
2018-07-08T06:04:43.958Z,1019.99
2018-07-08T06:05:53.881Z,1019.95
2018-07-08T06:07:03.554Z,1019.99
2018-07-08T06:08:13.229Z,1019.93
2018-07-08T06:09:22.452Z,1019.96
2018-07-08T06:10:31.354Z,1019.96
2018-07-08T06:11:41.022Z,1019.91
2018-07-08T06:12:50.724Z,1019.92
2018-07-08T06:14:00.396Z,1019.95
2018-07-08T06:15:09.558Z,1019.93
2018-07-08T06:16:19.248Z,1019.99
2018-07-08T06:17:28.408Z,1019.96
2018-07-08T06:18:37.830Z,1019.96
2018-07-08T06:19:47.251Z,1019.98
2018-07-08T06:20:56.166Z,1020.01
2018-07-08T06:22:05.547Z,1019.97
2018-07-08T06:23:14.704Z,1020.05
2018-07-08T06:24:24.112Z,1020.03
2018-07-08T06:25:33.261Z,1019.96
2018-07-08T06:26:42.419Z,1020
2018-07-08T06:27:51.328Z,1019.97
2018-07-08T06:29:00.512Z,1020
2018-07-08T06:30:09.424Z,1019.98
2018-07-08T06:31:19.097Z,1020.04
2018-07-08T06:32:27.990Z,1020.03
2018-07-08T06:33:36.916Z,1019.99
2018-07-08T06:34:46.848Z,1019.97
2018-07-08T06:35:56.007Z,1020.02
2018-07-08T06:37:05.700Z,1019.99
2018-07-08T06:38:14.604Z,1020
2018-07-08T06:39:24.023Z,1019.99
2018-07-08T06:40:33.449Z,1019.97
2018-07-08T06:41:42.887Z,1019.98
2018-07-08T06:42:52.060Z,1019.95
2018-07-08T06:44:01.755Z,1019.98
2018-07-08T06:45:11.181Z,1019.98
2018-07-08T06:46:21.123Z,1019.95
2018-07-08T06:47:30.037Z,1019.94
2018-07-08T06:48:39.452Z,1020
2018-07-08T06:49:49.133Z,1019.96
2018-07-08T06:50:59.073Z,1019.99
2018-07-08T06:52:08.505Z,1019.98
2018-07-08T06:53:18.150Z,1019.99
2018-07-08T06:54:27.595Z,1019.98
2018-07-08T06:55:37.999Z,1020.08
2018-07-08T06:56:46.686Z,1020.03
2018-07-08T06:57:55.959Z,1020.03
2018-07-08T06:59:05.239Z,1020.06
2018-07-08T07:00:14.155Z,1020.06
2018-07-08T07:01:23.829Z,1020.06
2018-07-08T07:02:33.775Z,1020.03
2018-07-08T07:03:42.930Z,1020.04
2018-07-08T07:04:52.356Z,1020.05
2018-07-08T07:06:01.769Z,1020.07
2018-07-08T07:07:10.404Z,1020.05
2018-07-08T07:08:19.828Z,1020.08
2018-07-08T07:09:29.243Z,1020.1
2018-07-08T07:10:38.922Z,1020.14
2018-07-08T07:11:48.605Z,1020.12
2018-07-08T07:12:58.302Z,1020.11
2018-07-08T07:14:07.722Z,1020.14
2018-07-08T07:15:17.150Z,1020.14
2018-07-08T07:16:26.300Z,1020.11
2018-07-08T07:17:36.011Z,1020.16
2018-07-08T07:18:45.956Z,1020.09
2018-07-08T07:19:55.397Z,1020.11
2018-07-08T07:21:04.823Z,1020.09
2018-07-08T07:22:14.532Z,1020.13
2018-07-08T07:23:23.424Z,1020.04
2018-07-08T07:24:32.833Z,1020.04
2018-07-08T07:25:42.253Z,1020.03
2018-07-08T07:26:51.989Z,1020.01
2018-07-08T07:28:01.396Z,1020.04
2018-07-08T07:29:10.544Z,1020.05
2018-07-08T07:30:19.964Z,1020.09
2018-07-08T07:31:29.404Z,1020.12
2018-07-08T07:32:38.563Z,1020.08
2018-07-08T07:33:47.975Z,1020.09
2018-07-08T07:34:57.913Z,1020.13
2018-07-08T07:36:07.577Z,1020.14
2018-07-08T07:37:17.332Z,1020.11
2018-07-08T07:38:27.382Z,1020.12
2018-07-08T07:39:36.288Z,1020.14
2018-07-08T07:40:45.436Z,1020.16
2018-07-08T07:41:54.865Z,1020.16
2018-07-08T07:43:03.770Z,1020.15
2018-07-08T07:44:13.457Z,1020.14
2018-07-08T07:45:23.134Z,1020.09
2018-07-08T07:46:33.227Z,1020.12
2018-07-08T07:47:43.176Z,1020.09
2018-07-08T07:48:52.865Z,1020.05
2018-07-08T07:50:02.543Z,1020.1
2018-07-08T07:51:12.040Z,1020.09
2018-07-08T07:52:21.589Z,1020.07
2018-07-08T07:53:31.269Z,1020.06
2018-07-08T07:54:40.752Z,1020.07
2018-07-08T07:55:50.165Z,1020.07
2018-07-08T07:56:59.320Z,1020.07
2018-07-08T07:58:09.250Z,1020.11
2018-07-08T07:59:18.949Z,1020.09
2018-07-08T08:00:28.369Z,1020.11
2018-07-08T08:01:37.787Z,1020.08
2018-07-08T08:02:47.466Z,1020.09
2018-07-08T08:03:56.102Z,1020.08
2018-07-08T08:05:05.811Z,1020.16
2018-07-08T08:06:15.237Z,1020.1
2018-07-08T08:07:24.388Z,1020.12
2018-07-08T08:08:33.869Z,1020.1
2018-07-08T08:09:43.740Z,1020.17
2018-07-08T08:10:53.414Z,1020.13
2018-07-08T08:12:02.854Z,1020.13
2018-07-08T08:13:12.275Z,1020.13
2018-07-08T08:14:21.697Z,1020.17
2018-07-08T08:15:30.865Z,1020.15
2018-07-08T08:16:40.577Z,1020.21
2018-07-08T08:17:50.258Z,1020.25
2018-07-08T08:18:59.953Z,1020.23
2018-07-08T08:20:09.636Z,1020.22
2018-07-08T08:21:18.547Z,1020.2
2018-07-08T08:22:27.449Z,1020.22
2018-07-08T08:23:36.882Z,1020.23
2018-07-08T08:24:46.569Z,1020.23
2018-07-08T08:25:55.985Z,1020.22
2018-07-08T08:27:05.674Z,1020.23
2018-07-08T08:28:15.607Z,1020.21
2018-07-08T08:29:24.688Z,1020.24
2018-07-08T08:30:34.116Z,1020.22
2018-07-08T08:31:43.792Z,1020.19
2018-07-08T08:32:52.776Z,1020.21
2018-07-08T08:34:01.884Z,1020.16
2018-07-08T08:35:11.606Z,1020.18
2018-07-08T08:36:20.537Z,1020.19
2018-07-08T08:37:29.955Z,1020.15
2018-07-08T08:38:39.396Z,1020.15
2018-07-08T08:39:49.063Z,1020.19
2018-07-08T08:40:58.535Z,1020.19
2018-07-08T08:42:07.964Z,1020.2
2018-07-08T08:43:17.117Z,1020.19
2018-07-08T08:44:26.792Z,1020.21
2018-07-08T08:45:35.945Z,1020.18
2018-07-08T08:46:45.376Z,1020.16
2018-07-08T08:47:55.096Z,1020.16
2018-07-08T08:49:04.305Z,1020.17
2018-07-08T08:50:13.501Z,1020.19
2018-07-08T08:51:23.172Z,1020.12
2018-07-08T08:52:33.159Z,1020.15
2018-07-08T08:53:42.036Z,1020.18
2018-07-08T08:54:51.463Z,1020.2
2018-07-08T08:56:00.951Z,1020.15
2018-07-08T08:57:10.418Z,1020.19
2018-07-08T08:58:19.896Z,1020.18
2018-07-08T08:59:29.985Z,1020.19
2018-07-08T09:00:39.647Z,1020.17
2018-07-08T09:01:49.304Z,1020.16
2018-07-08T09:02:58.749Z,1020.16
2018-07-08T09:04:07.902Z,1020.16
2018-07-08T09:05:17.055Z,1020.08
2018-07-08T09:06:26.792Z,1020.03
2018-07-08T09:07:36.470Z,1020.2
2018-07-08T09:08:45.936Z,1020.21
2018-07-08T09:09:55.609Z,1020.17
2018-07-08T09:11:05.286Z,1020.19
2018-07-08T09:12:14.961Z,1020.22
2018-07-08T09:13:24.116Z,1020.17
2018-07-08T09:14:33.036Z,1020.16
2018-07-08T09:15:42.448Z,1020.11
2018-07-08T09:16:51.351Z,1020.16
2018-07-08T09:18:01.040Z,1020.2
2018-07-08T09:19:10.713Z,1020.15
2018-07-08T09:20:22.010Z,1020.13
2018-07-08T09:21:31.469Z,1020.11
2018-07-08T09:22:41.098Z,1020.09
2018-07-08T09:23:51.699Z,1020.04
2018-07-08T09:25:01.305Z,1020.07
2018-07-08T09:26:10.763Z,1020.05
2018-07-08T09:27:20.653Z,1020.07
2018-07-08T09:28:30.641Z,1020.03
2018-07-08T09:29:40.439Z,1020.01
2018-07-08T09:30:49.881Z,1020.05
2018-07-08T09:31:59.988Z,1020.06
2018-07-08T09:33:09.784Z,1020.05
2018-07-08T09:34:19.217Z,1020.05
2018-07-08T09:35:28.430Z,1020.04
2018-07-08T09:36:37.868Z,1020
2018-07-08T09:37:47.298Z,1020.01
2018-07-08T09:38:57.413Z,1020.03
2018-07-08T09:40:06.865Z,1020.09
2018-07-08T09:41:15.764Z,1020.1
2018-07-08T09:42:25.172Z,1020.1
2018-07-08T09:43:34.335Z,1020.15
2018-07-08T09:44:44.002Z,1020.11
2018-07-08T09:45:53.719Z,1020.15
2018-07-08T09:47:03.043Z,1020.11
2018-07-08T09:48:12.464Z,1020.16
2018-07-08T09:49:21.622Z,1020.12
2018-07-08T09:50:31.289Z,1020.12
2018-07-08T09:51:40.969Z,1020.1
2018-07-08T09:52:50.121Z,1020.05
2018-07-08T09:53:59.813Z,1020.1
2018-07-08T09:55:08.963Z,1020.06
2018-07-08T09:56:17.882Z,1020.02
2018-07-08T09:57:27.343Z,1020.01
2018-07-08T09:58:37.009Z,1020.1
2018-07-08T09:59:46.160Z,1020.09
2018-07-08T10:00:55.592Z,1020.04
2018-07-08T10:02:04.764Z,1020.04
2018-07-08T10:03:14.180Z,1020.05
2018-07-08T10:04:23.337Z,1020.05
2018-07-08T10:05:32.852Z,1019.98
2018-07-08T10:06:42.514Z,1019.97
2018-07-08T10:07:51.996Z,1019.98
2018-07-08T10:09:01.406Z,1020.03
2018-07-08T10:10:10.873Z,1020.05
2018-07-08T10:11:20.035Z,1020.02
2018-07-08T10:12:29.499Z,1020.01
2018-07-08T10:13:38.944Z,1020
2018-07-08T10:14:48.651Z,1019.94
2018-07-08T10:15:58.196Z,1019.97
2018-07-08T10:17:07.133Z,1019.96
2018-07-08T10:18:16.313Z,1019.98
2018-07-08T10:19:25.352Z,1019.92
2018-07-08T10:20:35.683Z,1019.97
2018-07-08T10:21:45.376Z,1019.99
2018-07-08T10:22:55.041Z,1019.99
2018-07-08T10:24:04.452Z,1019.91
2018-07-08T10:25:14.144Z,1019.95
2018-07-08T10:26:23.787Z,1019.84
2018-07-08T10:27:32.681Z,1019.87
2018-07-08T10:28:42.109Z,1019.89
2018-07-08T10:29:51.260Z,1019.85
2018-07-08T10:31:00.153Z,1019.86
2018-07-08T10:32:09.307Z,1019.94
2018-07-08T10:33:18.735Z,1019.91
2018-07-08T10:34:28.144Z,1019.91
2018-07-08T10:35:36.779Z,1019.9
2018-07-08T10:36:45.935Z,1019.94
2018-07-08T10:37:54.821Z,1019.9
2018-07-08T10:39:03.991Z,1019.92
2018-07-08T10:40:13.649Z,1019.91
2018-07-08T10:41:23.065Z,1019.87
2018-07-08T10:42:32.222Z,1019.86
2018-07-08T10:43:41.883Z,1019.85
2018-07-08T10:44:50.841Z,1019.82
2018-07-08T10:45:59.737Z,1019.88
2018-07-08T10:47:09.142Z,1019.85
2018-07-08T10:48:18.028Z,1019.87
2018-07-08T10:49:27.442Z,1019.87
2018-07-08T10:50:36.860Z,1019.85
2018-07-08T10:51:46.528Z,1019.86
2018-07-08T10:52:55.923Z,1019.84
2018-07-08T10:54:05.349Z,1019.78
2018-07-08T10:55:15.020Z,1019.76
2018-07-08T10:56:25.256Z,1019.81
2018-07-08T10:57:34.656Z,1019.82
2018-07-08T10:58:43.805Z,1019.83
2018-07-08T10:59:53.204Z,1019.79
2018-07-08T11:01:02.883Z,1019.77
2018-07-08T11:02:12.039Z,1019.68
2018-07-08T11:03:21.732Z,1019.77
2018-07-08T11:04:31.658Z,1019.73
2018-07-08T11:05:41.310Z,1019.78
2018-07-08T11:06:50.461Z,1019.75
2018-07-08T11:07:59.871Z,1019.71
2018-07-08T11:09:09.814Z,1019.66
2018-07-08T11:10:18.749Z,1019.67
2018-07-08T11:11:27.655Z,1019.64
2018-07-08T11:12:37.350Z,1019.68
2018-07-08T11:13:46.511Z,1019.68
2018-07-08T11:14:55.929Z,1019.65
2018-07-08T11:16:05.363Z,1019.66
2018-07-08T11:17:14.770Z,1019.66
2018-07-08T11:18:24.194Z,1019.57
2018-07-08T11:19:33.597Z,1019.59
2018-07-08T11:20:42.674Z,1019.6
2018-07-08T11:21:52.189Z,1019.57
2018-07-08T11:23:01.344Z,1019.61
2018-07-08T11:24:10.766Z,1019.58
2018-07-08T11:25:19.920Z,1019.66
2018-07-08T11:26:29.343Z,1019.58
2018-07-08T11:27:39.001Z,1019.6
2018-07-08T11:28:48.405Z,1019.49
2018-07-08T11:29:57.572Z,1019.56
2018-07-08T11:31:06.728Z,1019.5
2018-07-08T11:32:15.893Z,1019.58
2018-07-08T11:33:25.561Z,1019.52
2018-07-08T11:34:34.720Z,1019.48
2018-07-08T11:35:43.614Z,1019.44
2018-07-08T11:36:53.540Z,1019.44
2018-07-08T11:38:02.702Z,1019.48
2018-07-08T11:39:11.848Z,1019.44
2018-07-08T11:40:21.604Z,1019.45
2018-07-08T11:41:31.277Z,1019.42
2018-07-08T11:42:40.699Z,1019.38
2018-07-08T11:43:50.481Z,1019.4
2018-07-08T11:44:59.882Z,1019.32
2018-07-08T11:46:09.030Z,1019.4
2018-07-08T11:47:18.696Z,1019.37
2018-07-08T11:48:27.856Z,1019.37
2018-07-08T11:49:37.536Z,1019.4
2018-07-08T11:50:47.005Z,1019.38
2018-07-08T11:51:56.423Z,1019.38
2018-07-08T11:53:05.850Z,1019.31
2018-07-08T11:54:15.269Z,1019.34
2018-07-08T11:55:24.441Z,1019.34
2018-07-08T11:56:34.879Z,1019.31
2018-07-08T11:57:44.289Z,1019.44
2018-07-08T11:58:53.980Z,1019.4
2018-07-08T12:00:03.165Z,1019.37
2018-07-08T12:01:12.337Z,1019.28
2018-07-08T12:02:22.039Z,1019.32
2018-07-08T12:03:31.441Z,1019.32
2018-07-08T12:04:40.605Z,1019.27
2018-07-08T12:05:50.038Z,1019.25
2018-07-08T12:06:59.447Z,1019.21
2018-07-08T12:08:08.857Z,1019.19
2018-07-08T12:09:18.285Z,1019.27
2018-07-08T12:10:27.705Z,1019.23
2018-07-08T12:11:36.888Z,1019.31
2018-07-08T12:12:46.055Z,1019.29
2018-07-08T12:13:55.224Z,1019.28
2018-07-08T12:15:04.147Z,1019.33
2018-07-08T12:16:13.841Z,1019.26
2018-07-08T12:17:22.990Z,1019.22
2018-07-08T12:18:32.136Z,1019.25
2018-07-08T12:19:41.813Z,1019.31
2018-07-08T12:20:51.731Z,1019.35
2018-07-08T12:22:00.882Z,1019.23
2018-07-08T12:23:10.035Z,1019.22
2018-07-08T12:24:19.186Z,1019.2
2018-07-08T12:25:28.872Z,1019.08
2018-07-08T12:26:38.794Z,1019.17
2018-07-08T12:27:48.729Z,1019.21
2018-07-08T12:28:57.893Z,1019.15
2018-07-08T12:30:07.304Z,1019.11
2018-07-08T12:31:16.980Z,1019.13
2018-07-08T12:32:26.403Z,1019.1
2018-07-08T12:33:35.818Z,1019.08
2018-07-08T12:34:45.243Z,1019.06
2018-07-08T12:35:55.169Z,1019
2018-07-08T12:37:04.343Z,1019.14
2018-07-08T12:38:13.767Z,1019.08
2018-07-08T12:39:22.933Z,1019.19
2018-07-08T12:40:32.345Z,1019.12
2018-07-08T12:41:41.757Z,1019.05
2018-07-08T12:42:50.671Z,1019.07
2018-07-08T12:44:00.140Z,1019.07
2018-07-08T12:45:09.609Z,1019.08
2018-07-08T12:46:19.017Z,1019.03
2018-07-08T12:47:28.174Z,1019.02
2018-07-08T12:48:37.077Z,1019.16
2018-07-08T12:49:46.223Z,1019.1
2018-07-08T12:50:55.631Z,1019.08
2018-07-08T12:52:05.043Z,1019.04
2018-07-08T12:53:14.217Z,1019.06
2018-07-08T12:54:23.626Z,1019.01
2018-07-08T12:55:33.050Z,1019.09
2018-07-08T12:56:42.218Z,1019.03
2018-07-08T12:57:51.881Z,1018.97
2018-07-08T12:59:01.114Z,1019
2018-07-08T13:00:11.499Z,1018.92
2018-07-08T13:01:20.922Z,1018.87
2018-07-08T13:02:30.865Z,1018.94
2018-07-08T13:03:39.784Z,1018.94
2018-07-08T13:04:48.939Z,1018.87
2018-07-08T13:05:58.365Z,1019
2018-07-08T13:07:08.307Z,1018.96
2018-07-08T13:08:17.985Z,1018.98
2018-07-08T13:09:27.142Z,1018.98
2018-07-08T13:10:36.824Z,1019.03
2018-07-08T13:11:46.137Z,1019
2018-07-08T13:12:55.153Z,1019
2018-07-08T13:14:04.583Z,1018.99
2018-07-08T13:15:13.988Z,1019.12
2018-07-08T13:16:23.127Z,1019
2018-07-08T13:17:32.976Z,1019.05
2018-07-08T13:18:42.146Z,1019
2018-07-08T13:19:51.603Z,1018.97
2018-07-08T13:21:01.884Z,1019
2018-07-08T13:22:11.301Z,1018.96
2018-07-08T13:23:20.740Z,1018.92
2018-07-08T13:24:30.407Z,1018.9
2018-07-08T13:25:39.559Z,1018.9
2018-07-08T13:26:48.965Z,1018.92
2018-07-08T13:27:58.386Z,1018.89
2018-07-08T13:29:07.798Z,1018.91
2018-07-08T13:30:17.725Z,1018.93
2018-07-08T13:31:27.191Z,1018.88
2018-07-08T13:32:36.355Z,1018.94
2018-07-08T13:33:46.587Z,1018.92
2018-07-08T13:34:56.284Z,1018.91
2018-07-08T13:36:05.699Z,1018.8
2018-07-08T13:37:15.100Z,1018.81
2018-07-08T13:38:24.774Z,1018.77
2018-07-08T13:39:34.476Z,1018.82
2018-07-08T13:40:43.385Z,1018.85
2018-07-08T13:41:52.813Z,1018.78
2018-07-08T13:43:01.977Z,1018.83
2018-07-08T13:44:11.127Z,1018.79
2018-07-08T13:45:20.810Z,1018.76
2018-07-08T13:46:30.496Z,1018.76
2018-07-08T13:47:39.660Z,1018.78
2018-07-08T13:48:49.071Z,1018.75
2018-07-08T13:49:57.980Z,1018.77
2018-07-08T13:51:07.912Z,1018.84
2018-07-08T13:52:17.083Z,1018.77
2018-07-08T13:53:26.763Z,1018.79
2018-07-08T13:54:36.176Z,1018.79
2018-07-08T13:55:45.646Z,1018.75
2018-07-08T13:56:54.766Z,1018.71
2018-07-08T13:58:04.189Z,1018.82
2018-07-08T13:59:12.820Z,1018.75
2018-07-08T14:00:21.975Z,1018.84
2018-07-08T14:01:31.130Z,1018.67
2018-07-08T14:02:40.028Z,1018.72
2018-07-08T14:03:49.429Z,1018.8